Time;durP1;ratioP1;P1;durP2;ratioP2;P2;SDS_P1;SDS_P2;PMS_P1;PMS_P2;Temp;Humidity;BMP_temperature;BMP_pressure;BME280_temperature;BME280_humidity;BME280_pressure;Samples;Min_cycle;Max_cycle;Signal;HPM_P1;HPM_P2
2022/04/04 00:01:23;;;;;;;;;46.75;40.00;;;;;5.30;56.81;102083.72;5030916;28;47215;-71
2022/04/04 00:03:49;;;;;;;;;26.67;24.00;;;;;5.33;57.19;102091.56;5013702;28;45418;-71
2022/04/04 00:06:14;;;;;;;;;32.25;24.75;;;;;5.30;56.98;102096.75;5029996;28;45441;-71
2022/04/04 00:08:40;;;;;;;;;26.00;24.00;;;;;5.33;57.19;102104.59;5030939;28;45624;-71
2022/04/04 00:11:06;;;;;;;;;20.75;17.50;;;;;5.24;57.42;102092.41;5028484;28;45546;-71
2022/04/04 00:13:32;;;;;;;;;17.75;16.25;;;;;5.25;57.49;102101.97;5033137;28;45548;-71
2022/04/04 00:15:58;;;;;;;;;23.00;16.25;;;;;5.26;57.58;102111.53;5035801;28;46174;-71
2022/04/04 00:18:23;;;;;;;;;20.75;17.50;;;;;5.14;57.75;102094.13;5032638;28;45306;-71
2022/04/04 00:20:51;;;;;;;;;18.25;16.00;;;;;5.19;57.79;102104.56;5031865;28;46006;-71
2022/04/04 00:23:18;;;;;;;;;21.25;17.25;;;;;5.08;57.83;102082.84;5014103;28;45608;-71
2022/04/04 00:25:46;;;;;;;;;32.75;29.50;;;;;5.13;57.95;102101.97;5031606;28;46153;-71
2022/04/04 00:28:12;;;;;;;;;55.75;43.00;;;;;5.00;58.24;102094.97;5035543;28;46037;-71
2022/04/04 00:30:38;;;;;;;;;66.50;51.00;;;;;4.97;58.42;102088.03;5033424;28;45681;-71
2022/04/04 00:33:05;;;;;;;;;67.00;49.25;;;;;5.04;58.53;102099.34;5032235;28;45497;-71
2022/04/04 00:35:30;;;;;;;;;45.00;38.00;;;;;4.86;58.94;102075.00;5013943;28;48157;-71
2022/04/04 00:37:58;;;;;;;;;52.25;41.00;;;;;4.92;58.85;102085.44;5031837;28;45376;-71
2022/04/04 00:40:24;;;;;;;;;44.25;34.50;;;;;4.97;58.73;102094.13;5034185;28;45318;-71
2022/04/04 00:42:49;;;;;;;;;34.75;28.75;;;;;4.82;59.24;102068.03;5036236;28;45358;-71
2022/04/04 00:45:15;;;;;;;;;42.25;35.25;;;;;4.92;59.48;102090.63;5013995;28;46150;-71
2022/04/04 00:47:40;;;;;;;;;36.00;30.00;;;;;4.88;59.51;102090.63;5031534;28;45403;-71
2022/04/04 00:50:06;;;;;;;;;37.25;25.25;;;;;4.76;59.39;102069.78;5031518;28;45830;-71
2022/04/04 00:52:32;;;;;;;;;26.25;23.50;;;;;4.83;59.89;102085.41;5032398;28;45468;-71
2022/04/04 00:54:58;;;;;;;;;27.25;21.75;;;;;4.81;59.92;102081.06;5017264;28;48097;-71
2022/04/04 00:57:23;;;;;;;;;22.50;20.00;;;;;4.64;60.03;102057.56;5031469;28;45372;-71
2022/04/04 00:59:49;;;;;;;;;21.50;16.00;;;;;4.74;60.04;102082.75;5031676;28;45745;-71
2022/04/04 01:02:15;;;;;;;;;16.75;16.75;;;;;4.71;60.00;102080.16;5031517;28;45510;-71
2022/04/04 01:04:41;;;;;;;;;16.00;13.75;;;;;4.68;60.20;102077.53;5031140;28;45575;-71
2022/04/04 01:07:07;;;;;;;;;18.00;13.75;;;;;4.65;60.27;102081.03;5035523;28;45406;-71
2022/04/04 01:09:32;;;;;;;;;19.00;16.00;;;;;4.51;60.25;102061.00;5013952;28;45556;-71
2022/04/04 01:12:12;;;;;;;;;13.00;12.00;;;;;4.47;60.43;102056.66;5030894;28;45603;-72
2022/04/04 01:14:41;;;;;;;;;12.25;11.75;;;;;4.46;60.23;102066.19;5033357;28;45571;-72
2022/04/04 01:17:07;;;;;;;;;23.25;19.75;;;;;4.53;60.29;102073.16;5031064;28;46810;-71
2022/04/04 01:19:34;;;;;;;;;23.00;15.50;;;;;4.50;60.80;102072.28;5031305;28;45632;-71
2022/04/04 01:22:00;;;;;;;;;18.75;16.00;;;;;4.49;60.70;102079.25;5035659;28;45429;-71
2022/04/04 01:24:26;;;;;;;;;18.25;13.25;;;;;4.47;60.47;102073.13;5031649;28;45555;-71
2022/04/04 01:26:53;;;;;;;;;17.50;16.25;;;;;4.44;61.04;102070.53;5032074;28;46019;-72
2022/04/04 01:29:22;;;;;;;;;20.25;16.25;;;;;4.40;60.76;102069.66;5020184;28;45394;-72
2022/04/04 01:31:49;;;;;;;;;13.25;12.25;;;;;4.40;60.98;102074.00;5021223;28;45524;-72
2022/04/04 01:34:16;;;;;;;;;16.25;15.50;;;;;4.25;61.03;102043.56;5034292;28;45563;-71
2022/04/04 01:36:42;;;;;;;;;20.75;16.00;;;;;4.25;61.34;102047.91;5032775;28;45351;-71
2022/04/04 01:39:07;;;;;;;;;18.00;15.25;;;;;4.19;61.59;102039.22;5026655;28;45421;-72
2022/04/04 01:41:33;;;;;;;;;13.25;11.75;;;;;4.26;61.67;102065.25;5026642;28;51318;-72
2022/04/04 01:43:58;;;;;;;;;13.75;12.50;;;;;4.23;61.90;102052.22;5026783;28;45741;-72
2022/04/04 01:46:24;;;;;;;;;15.00;14.67;;;;;4.06;61.75;102033.94;5028092;28;45556;-71
2022/04/04 01:48:50;;;;;;;;;15.50;12.25;;;;;4.16;62.07;102056.53;5032553;28;45269;-72
2022/04/04 01:51:15;;;;;;;;;16.25;13.00;;;;;3.96;62.14;102014.81;5020916;28;45266;-71
2022/04/04 01:53:41;;;;;;;;;17.25;8.75;;;;;3.98;62.22;102023.50;5027893;28;45582;-72
2022/04/04 01:56:07;;;;;;;;;11.00;11.00;;;;;4.10;62.21;102043.50;5028804;28;45337;-72
2022/04/04 01:58:33;;;;;;;;;15.75;14.50;;;;;3.97;62.35;102028.66;5002031;28;45443;-72
2022/04/04 02:01:01;;;;;;;;;14.75;11.25;;;;;3.98;62.47;102044.31;5015405;28;45531;-72
2022/04/04 02:03:31;;;;;;;;;13.00;10.75;;;;;3.93;62.65;102031.28;5034656;28;45426;-72
2022/04/04 02:05:58;;;;;;;;;11.25;8.25;;;;;3.90;62.58;102023.44;5030956;28;46068;-72
2022/04/04 02:08:24;;;;;;;;;11.25;11.00;;;;;3.84;62.66;102023.41;5028408;28;45521;-72
2022/04/04 02:10:49;;;;;;;;;16.50;15.50;;;;;3.97;62.97;102050.38;5026707;28;45390;-72
2022/04/04 02:13:15;;;;;;;;;18.75;11.50;;;;;3.81;62.91;102020.81;5023382;28;46244;-72
2022/04/04 02:15:40;;;;;;;;;12.75;11.00;;;;;3.82;63.12;102022.56;5031639;28;45639;-72
2022/04/04 02:18:05;;;;;;;;;15.00;10.50;;;;;3.83;62.84;102018.22;5030768;28;45563;-72
2022/04/04 02:20:31;;;;;;;;;9.75;8.75;;;;;3.88;62.76;102027.78;5031298;28;45620;-72
2022/04/04 02:22:57;;;;;;;;;17.75;12.50;;;;;3.87;63.05;102031.25;5026201;28;45487;-72
2022/04/04 02:25:22;;;;;;;;;9.00;9.00;;;;;3.77;63.24;102019.06;5031750;28;45459;-71
2022/04/04 02:27:48;;;;;;;;;17.00;12.00;;;;;3.79;63.16;102022.53;5032870;28;45395;-72
2022/04/04 02:30:13;;;;;;;;;17.75;8.75;;;;;3.71;63.33;102013.84;5029762;28;45421;-72
2022/04/04 02:32:39;;;;;;;;;11.00;8.25;;;;;3.73;63.41;102013.81;5030183;28;46276;-72
2022/04/04 02:35:05;;;;;;;;;9.75;9.50;;;;;3.74;63.61;102010.38;5029856;28;45523;-72
2022/04/04 02:37:30;;;;;;;;;12.25;8.25;;;;;3.71;63.23;102007.72;5031300;28;45591;-72
2022/04/04 02:39:56;;;;;;;;;12.00;10.25;;;;;3.76;63.47;102017.31;5028649;28;45582;-71
2022/04/04 02:42:22;;;;;;;;;7.75;4.25;;;;;3.77;63.29;102016.47;5034195;28;45503;-72
2022/04/04 02:44:48;;;;;;;;;8.00;6.25;;;;;3.76;63.55;102019.03;5027379;28;45355;-72
2022/04/04 02:47:13;;;;;;;;;11.00;11.00;;;;;3.64;63.47;102002.50;5023516;28;45357;-72
2022/04/04 02:49:38;;;;;;;;;14.50;11.00;;;;;3.75;63.67;102015.56;5029849;28;45580;-72
2022/04/04 02:52:04;;;;;;;;;10.50;8.50;;;;;3.64;63.88;102004.25;5034255;28;45686;-72
2022/04/04 02:54:30;;;;;;;;;7.00;7.00;;;;;3.75;63.96;102017.28;5030280;28;45522;-72
2022/04/04 02:56:55;;;;;;;;;12.25;9.50;;;;;3.74;64.00;102021.63;5029715;28;45532;-72
2022/04/04 02:59:21;;;;;;;;;15.50;7.25;;;;;3.58;63.65;101993.81;5029933;28;45335;-72
2022/04/04 03:01:48;;;;;;;;;9.00;9.00;;;;;3.66;63.91;102012.94;5031609;28;47694;-71
2022/04/04 03:04:18;;;;;;;;;9.50;7.25;;;;;3.53;63.92;101998.97;5023384;28;45507;-71
2022/04/04 03:06:44;;;;;;;;;17.25;12.00;;;;;3.56;63.72;101995.53;5009152;28;45431;-71
2022/04/04 03:09:10;;;;;;;;;10.75;10.50;;;;;3.63;63.96;102010.31;5023819;28;45514;-71
2022/04/04 03:11:36;;;;;;;;;9.50;9.50;;;;;3.63;63.92;102011.16;5023691;28;45461;-71
2022/04/04 03:14:01;;;;;;;;;6.25;5.00;;;;;3.64;63.96;102012.03;5022565;28;45603;-72
2022/04/04 03:16:27;;;;;;;;;11.50;9.50;;;;;3.64;64.36;102006.84;5019585;28;45453;-72
2022/04/04 03:18:55;;;;;;;;;10.50;9.00;;;;;3.51;64.25;101979.91;5029903;28;45365;-72
2022/04/04 03:21:23;;;;;;;;;11.00;10.00;;;;;3.65;64.17;102004.28;5027933;28;46451;-72
2022/04/04 03:23:48;;;;;;;;;10.50;7.25;;;;;3.64;64.33;101997.31;5026626;28;45596;-72
2022/04/04 03:26:14;;;;;;;;;11.00;7.25;;;;;3.63;64.07;101999.91;5023812;28;45713;-72
2022/04/04 03:28:40;;;;;;;;;7.00;7.00;;;;;3.61;63.89;101999.91;5029383;28;45517;-72
2022/04/04 03:31:06;;;;;;;;;11.75;7.75;;;;;3.59;64.31;101996.41;5033581;28;47324;-72
2022/04/04 03:33:36;;;;;;;;;11.00;8.25;;;;;3.60;64.36;101990.38;5030199;28;45832;-72
2022/04/04 03:36:02;;;;;;;;;6.25;6.25;;;;;3.60;64.43;101994.69;5034258;28;45486;-72
2022/04/04 03:38:28;;;;;;;;;11.00;8.75;;;;;3.61;64.39;101993.84;5027151;28;45511;-72
2022/04/04 03:40:54;;;;;;;;;8.75;7.25;;;;;3.59;64.65;101979.94;5026321;28;46213;-72
2022/04/04 03:43:20;;;;;;;;;8.25;7.25;;;;;3.59;64.29;101979.94;5035041;28;45539;-72
2022/04/04 03:45:46;;;;;;;;;15.00;7.50;;;;;3.57;64.52;101982.53;5034815;28;45404;-72
2022/04/04 03:48:12;;;;;;;;;12.50;8.75;;;;;3.57;64.65;101981.69;5032932;28;45349;-72
2022/04/04 03:50:37;;;;;;;;;12.50;9.00;;;;;3.56;64.30;101988.59;5032758;28;45618;-72
2022/04/04 03:53:03;;;;;;;;;9.25;8.00;;;;;3.56;64.44;101979.94;5031020;28;45469;-72
2022/04/04 03:55:38;;;;;;;;;11.25;9.25;;;;;3.54;64.80;101974.72;5021689;28;45491;-72
2022/04/04 03:58:05;;;;;;;;;8.75;7.75;;;;;3.54;64.29;101976.44;5034001;28;45522;-71
2022/04/04 04:00:31;;;;;;;;;14.50;8.75;;;;;3.52;64.68;101966.06;5029526;28;47318;-71
2022/04/04 04:02:57;;;;;;;;;15.50;9.00;;;;;3.51;64.24;101972.13;5027741;28;45672;-71
2022/04/04 04:05:23;;;;;;;;;9.00;9.00;;;;;3.48;64.31;101966.88;5035936;28;45333;-71
2022/04/04 04:07:48;;;;;;;;;20.25;9.00;;;;;3.47;64.61;101962.56;5031722;28;45367;-71
2022/04/04 04:10:14;;;;;;;;;9.75;9.75;;;;;3.46;64.74;101966.03;5032693;28;46122;-71
2022/04/04 04:12:40;;;;;;;;;13.25;11.25;;;;;3.45;64.77;101964.28;5025655;28;45409;-71
2022/04/04 04:15:11;;;;;;;;;8.00;8.00;;;;;3.41;64.73;101962.53;5033004;28;45797;-71
2022/04/04 04:17:37;;;;;;;;;15.00;9.25;;;;;3.39;64.81;101956.44;5030516;28;45540;-71
2022/04/04 04:20:29;;;;;;;;;10.00;8.25;;;;;3.37;64.83;101964.22;5032945;28;46407;-71
2022/04/04 04:23:02;;;;;;;;;14.75;12.00;;;;;3.37;65.20;101951.22;5023077;28;45380;-71
2022/04/04 04:25:30;;;;;;;;;16.25;13.75;;;;;3.34;65.20;101951.22;5022664;28;45538;-71
2022/04/04 04:28:01;;;;;;;;;14.75;12.75;;;;;3.34;65.26;101945.13;5033599;28;45618;-71
2022/04/04 04:30:27;;;;;;;;;20.00;15.00;;;;;3.35;65.33;101950.38;5033797;28;47511;-71
2022/04/04 04:32:53;;;;;;;;;15.25;13.00;;;;;3.34;65.30;101947.75;5027555;28;46105;-72
2022/04/04 04:35:21;;;;;;;;;5.50;3.50;;;;;3.35;65.38;101946.91;5029722;28;45386;-72
2022/04/04 04:37:47;;;;;;;;;22.00;15.50;;;;;3.33;65.38;101944.28;5006381;28;45513;-71
2022/04/04 04:40:14;;;;;;;;;14.25;13.00;;;;;3.32;65.25;101939.94;5032733;28;46124;-72
2022/04/04 04:42:42;;;;;;;;;14.75;14.00;;;;;3.30;65.34;101936.47;5027838;28;45390;-72
2022/04/04 04:45:07;;;;;;;;;22.75;14.00;;;;;3.31;65.39;101939.94;5035638;28;45550;-71
2022/04/04 04:47:33;;;;;;;;;21.00;15.00;;;;;3.28;65.71;101937.31;5028473;28;45356;-71
2022/04/04 04:50:01;;;;;;;;;21.25;19.00;;;;;3.26;65.49;101929.53;5031133;28;46280;-71
2022/04/04 04:52:27;;;;;;;;;32.25;29.75;;;;;3.27;65.54;101932.97;5022636;28;45548;-71
2022/04/04 04:54:53;;;;;;;;;24.75;18.50;;;;;3.21;65.73;101926.03;5034242;28;45490;-71
2022/04/04 04:57:19;;;;;;;;;33.75;29.25;;;;;3.23;65.86;101921.69;5031331;28;45412;-71
2022/04/04 04:59:45;;;;;;;;;38.75;30.25;;;;;3.21;66.13;101930.34;5031141;28;46958;-72
2022/04/04 05:02:11;;;;;;;;;33.25;25.75;;;;;3.17;66.36;101934.66;5030494;28;45575;-71
2022/04/04 05:04:37;;;;;;;;;34.75;25.50;;;;;3.10;65.91;101925.94;5027489;28;45468;-71
2022/04/04 05:07:02;;;;;;;;;35.50;27.75;;;;;3.13;66.21;101927.69;5017239;28;45616;-71
2022/04/04 05:09:27;;;;;;;;;27.00;21.00;;;;;3.13;66.56;101930.28;5028234;28;46105;-72
2022/04/04 05:11:53;;;;;;;;;32.25;26.00;;;;;3.12;66.68;101933.75;5030723;28;45463;-73
2022/04/04 05:14:19;;;;;;;;;22.50;21.00;;;;;3.11;66.63;101934.59;5029289;28;45462;-72
2022/04/04 05:16:48;;;;;;;;;27.50;26.75;;;;;3.07;66.64;101931.09;5025588;28;45723;-72
2022/04/04 05:19:19;;;;;;;;;34.25;24.25;;;;;3.06;66.74;101933.72;5019374;28;47167;-72
2022/04/04 05:21:45;;;;;;;;;32.00;27.50;;;;;3.05;66.51;101931.97;5029526;28;46067;-73
2022/04/04 05:24:11;;;;;;;;;34.75;24.50;;;;;3.04;66.54;101928.50;5031505;28;45541;-72
2022/04/04 05:26:36;;;;;;;;;29.00;23.50;;;;;3.06;66.65;101928.50;5025294;28;45230;-72
2022/04/04 05:29:03;;;;;;;;;27.25;24.75;;;;;3.06;66.67;101924.19;5029922;28;45959;-72
2022/04/04 05:31:30;;;;;;;;;30.00;23.25;;;;;3.06;66.53;101919.00;5032364;28;45566;-72
2022/04/04 05:33:57;;;;;;;;;33.25;27.75;;;;;3.08;66.78;101921.59;5030224;28;45896;-72
2022/04/04 05:36:23;;;;;;;;;35.50;27.50;;;;;3.08;66.75;101927.69;5031623;28;45501;-72
2022/04/04 05:38:50;;;;;;;;;39.00;28.00;;;;;3.09;66.52;101926.81;5022673;28;46422;-72
2022/04/04 05:41:17;;;;;;;;;44.00;28.00;;;;;3.09;66.82;101923.34;5023934;28;45363;-72
2022/04/04 05:43:43;;;;;;;;;14.25;7.25;;;;;3.11;67.02;101930.28;5029095;28;45798;-72
2022/04/04 05:46:09;;;;;;;;;38.25;29.00;;;;;3.13;66.62;101919.88;5030063;28;45533;-72
2022/04/04 05:48:34;;;;;;;;;28.00;25.75;;;;;3.14;66.86;101922.53;5031893;28;46870;-73
2022/04/04 05:50:59;;;;;;;;;33.00;30.75;;;;;3.17;66.92;101916.47;5028352;28;45489;-72
2022/04/04 05:53:25;;;;;;;;;31.33;25.00;;;;;3.24;66.86;101928.66;5029425;28;46143;-72
2022/04/04 05:55:50;;;;;;;;;24.33;18.67;;;;;3.28;66.91;101924.31;5031000;28;45338;-72
2022/04/04 05:58:15;;;;;;;;;29.33;25.67;;;;;3.29;67.30;101924.34;5028967;28;52643;-72
2022/04/04 06:00:41;;;;;;;;;35.50;25.50;;;;;3.35;67.31;101931.31;5031626;28;47115;-73
2022/04/04 06:03:06;;;;;;;;;22.25;20.25;;;;;3.40;67.19;101924.41;5035178;28;45461;-73
2022/04/04 06:05:32;;;;;;;;;25.50;21.25;;;;;3.46;67.27;101927.03;5026601;28;45326;-73
2022/04/04 06:07:57;;;;;;;;;32.50;24.50;;;;;3.52;67.04;101921.00;5027734;28;46349;-73
2022/04/04 06:10:23;;;;;;;;;25.33;19.33;;;;;3.60;67.36;101921.88;5025513;28;50375;-72
2022/04/04 06:12:48;;;;;;;;;21.67;19.00;;;;;3.67;66.93;101921.09;5031904;28;47606;-72
2022/04/04 06:15:16;;;;;;;;;24.00;16.00;;;;;3.76;67.30;101920.22;5004876;28;45667;-72
2022/04/04 06:17:44;;;;;;;;;22.00;18.00;;;;;3.84;66.98;101919.41;5029896;28;46085;-71
2022/04/04 06:20:10;;;;;;;;;27.25;20.25;;;;;3.95;66.65;101916.84;5028259;28;45804;-74
2022/04/04 06:22:37;;;;;;;;;23.50;18.00;;;;;4.04;66.21;101913.41;5025269;28;45524;-73
2022/04/04 06:25:04;;;;;;;;;26.50;22.50;;;;;4.10;66.25;101911.69;5024545;28;45306;-73
2022/04/04 06:27:30;;;;;;;;;37.75;26.25;;;;;4.18;65.52;101917.78;5031384;28;45504;-73
2022/04/04 06:29:56;;;;;;;;;32.50;25.50;;;;;4.25;66.20;101913.47;5030494;28;45794;-73
2022/04/04 06:32:24;;;;;;;;;28.00;26.25;;;;;4.33;65.79;101913.47;5028811;28;45473;-73
2022/04/04 06:34:50;;;;;;;;;28.00;24.00;;;;;4.43;65.82;101913.47;5034011;28;45401;-73
2022/04/04 06:37:16;;;;;;;;;37.75;25.75;;;;;4.54;65.58;101912.63;5027361;28;46086;-73
2022/04/04 06:39:41;;;;;;;;;28.00;24.75;;;;;4.68;65.30;101908.28;5021612;28;45421;-73
2022/04/04 06:42:07;;;;;;;;;35.00;28.50;;;;;4.80;65.14;101903.06;5026011;28;45548;-72
2022/04/04 06:44:32;;;;;;;;;30.25;25.50;;;;;4.90;65.09;101907.41;5029478;28;45476;-73
2022/04/04 06:46:57;;;;;;;;;29.33;24.33;;;;;5.09;64.81;101902.19;5030998;28;50062;-72
2022/04/04 06:49:22;;;;;;;;;27.67;22.67;;;;;5.38;64.08;101900.41;5027946;28;49515;-73
2022/04/04 06:51:50;;;;;;;;;29.67;24.00;;;;;5.62;64.39;101899.41;5029975;28;46056;-73
2022/04/04 06:54:18;;;;;;;;;25.25;22.50;;;;;6.07;63.80;101907.94;5029692;28;45259;-73
2022/04/04 06:56:45;;;;;;;;;32.00;24.50;;;;;6.27;62.51;101902.63;5029388;28;45530;-73
2022/04/04 06:59:11;;;;;;;;;26.00;22.00;;;;;6.33;61.96;101892.13;5029402;28;45857;-73
2022/04/04 07:01:37;;;;;;;;;22.25;22.25;;;;;6.48;61.62;101894.63;5030399;28;45567;-72
2022/04/04 07:04:03;;;;;;;;;29.75;20.50;;;;;6.60;61.02;101893.66;5027748;28;45376;-74
2022/04/04 07:06:28;;;;;;;;;24.25;19.00;;;;;6.62;60.68;101891.03;5030110;28;46875;-73
2022/04/04 07:08:54;;;;;;;;;18.25;17.00;;;;;6.74;59.54;101889.19;5024856;28;45576;-73
2022/04/04 07:11:20;;;;;;;;;25.50;19.25;;;;;6.95;59.61;101887.28;5027693;28;45385;-73
2022/04/04 07:13:48;;;;;;;;;17.25;17.25;;;;;7.07;59.02;101884.53;5028569;28;45505;-73
2022/04/04 07:16:13;;;;;;;;;15.25;15.25;;;;;7.18;58.84;101879.19;5027612;28;45931;-72
2022/04/04 07:18:39;;;;;;;;;19.00;16.50;;;;;7.21;58.71;101879.16;5028853;28;45495;-73
2022/04/04 07:21:04;;;;;;;;;21.00;18.00;;;;;7.25;58.09;101875.63;5029248;28;45432;-72
2022/04/04 07:23:30;;;;;;;;;19.50;17.00;;;;;7.26;57.99;101877.38;5026760;28;45585;-72
2022/04/04 07:25:55;;;;;;;;;27.50;20.25;;;;;7.27;57.93;101871.25;5027839;28;45942;-73
2022/04/04 07:28:22;;;;;;;;;23.00;20.00;;;;;7.27;57.31;101863.41;5019121;28;45480;-72
2022/04/04 07:30:49;;;;;;;;;25.00;20.25;;;;;7.27;57.85;101871.25;5031609;28;45379;-74
2022/04/04 07:33:17;;;;;;;;;25.25;21.00;;;;;7.33;57.91;101863.34;5027640;28;45479;-72
2022/04/04 07:35:43;;;;;;;;;22.25;21.00;;;;;7.38;57.52;101869.38;5025912;28;46101;-71
2022/04/04 07:38:12;;;;;;;;;20.75;20.00;;;;;7.43;57.44;101857.13;5029199;28;45547;-71
2022/04/04 07:40:38;;;;;;;;;20.75;16.75;;;;;7.49;56.63;101859.66;5033047;28;45479;-71
2022/04/04 07:43:03;;;;;;;;;20.25;15.25;;;;;7.57;56.14;101849.09;5031975;28;45567;-70
2022/04/04 07:45:30;;;;;;;;;15.25;11.00;;;;;7.64;55.87;101853.38;5031599;28;45593;-71
2022/04/04 07:47:57;;;;;;;;;13.25;9.75;;;;;7.72;55.27;101846.25;5029518;28;47129;-71
2022/04/04 07:50:22;;;;;;;;;9.00;9.00;;;;;7.84;54.95;101845.25;5031120;28;45389;-71
2022/04/04 07:52:48;;;;;;;;;7.00;7.00;;;;;8.00;53.69;101840.66;5030430;28;45468;-72
2022/04/04 07:55:13;;;;;;;;;9.00;6.50;;;;;8.16;53.58;101833.44;5031538;28;45599;-71
2022/04/04 07:57:40;;;;;;;;;8.75;7.25;;;;;8.30;51.81;101827.09;5033315;28;45521;-72
2022/04/04 08:00:07;;;;;;;;;9.50;9.50;;;;;8.44;53.16;101832.13;5027950;28;45517;-71
2022/04/04 08:02:33;;;;;;;;;10.00;6.00;;;;;8.63;52.66;101830.09;5032390;28;45632;-72
2022/04/04 08:04:59;;;;;;;;;9.00;6.50;;;;;8.77;52.95;101830.72;5030757;28;46101;-72
2022/04/04 08:07:24;;;;;;;;;9.33;6.33;;;;;8.94;51.80;101829.53;5032938;28;48293;-71
2022/04/04 08:09:49;;;;;;;;;9.50;8.75;;;;;9.12;51.69;101814.28;5025151;28;45694;-72
2022/04/04 08:12:15;;;;;;;;;9.25;7.00;;;;;9.34;51.23;101822.63;5030934;28;45539;-72
2022/04/04 08:14:40;;;;;;;;;7.25;5.00;;;;;9.50;51.19;101814.41;5025705;28;45502;-72
2022/04/04 08:17:06;;;;;;;;;6.00;5.00;;;;;9.63;50.09;101818.50;5029765;28;45574;-72
2022/04/04 08:19:32;;;;;;;;;7.00;5.00;;;;;9.68;49.88;101811.41;5026579;28;45543;-71
2022/04/04 08:21:57;;;;;;;;;7.00;6.25;;;;;9.77;49.29;101818.22;5026314;28;45323;-72
2022/04/04 08:24:23;;;;;;;;;3.00;3.00;;;;;9.87;49.05;101809.22;5024029;28;45568;-72
2022/04/04 08:26:48;;;;;;;;;3.50;2.50;;;;;10.00;48.57;101807.19;5031577;28;45539;-72
2022/04/04 08:29:14;;;;;;;;;6.25;3.00;;;;;10.18;49.01;101804.13;5030395;28;46914;-72
2022/04/04 08:31:40;;;;;;;;;7.00;5.00;;;;;10.41;48.78;101798.31;5032171;28;45513;-72
2022/04/04 08:34:06;;;;;;;;;6.25;6.25;;;;;10.71;48.75;101801.94;5034096;28;45520;-72
2022/04/04 08:36:31;;;;;;;;;4.25;4.25;;;;;11.12;48.08;101790.28;5035204;28;46483;-72
2022/04/04 08:38:57;;;;;;;;;4.75;4.75;;;;;11.69;47.87;101791.22;5031026;28;45603;-71
2022/04/04 08:41:24;;;;;;;;;4.75;3.00;;;;;12.40;45.93;101792.50;5029254;28;45510;-72
2022/04/04 08:43:50;;;;;;;;;7.00;4.50;;;;;13.17;46.30;101786.25;5027064;28;46197;-72
2022/04/04 08:46:16;;;;;;;;;6.50;4.00;;;;;14.55;46.62;101779.00;5047375;28;45621;-72
2022/04/04 08:48:42;;;;;;;;;1.00;1.00;;;;;16.76;44.43;101772.09;5033041;28;45404;-72
2022/04/04 08:51:08;;;;;;;;;4.00;4.00;;;;;19.88;42.93;101760.84;5034825;28;45515;-72
2022/04/04 08:53:38;;;;;;;;;4.50;4.50;;;;;22.54;40.21;101763.25;5016661;28;47187;-72
2022/04/04 08:56:05;;;;;;;;;2.75;2.75;;;;;24.09;37.90;101757.94;5034375;28;45808;-73
2022/04/04 08:58:32;;;;;;;;;2.25;2.25;;;;;25.18;36.76;101751.28;5033887;28;45634;-71
2022/04/04 09:00:59;;;;;;;;;4.00;3.75;;;;;26.97;34.11;101751.72;5039201;28;45544;-71
2022/04/04 09:03:31;;;;;;;;;3.50;3.50;;;;;28.90;31.55;101748.56;5041685;28;45540;-71
2022/04/04 09:06:03;;;;;;;;;6.75;5.25;;;;;30.00;29.39;101750.28;5036206;28;45751;-71
2022/04/04 09:08:30;;;;;;;;;4.00;4.00;;;;;30.63;28.23;101746.88;5036874;28;45592;-72
2022/04/04 09:11:00;;;;;;;;;6.50;4.00;;;;;31.35;26.98;101743.28;5036523;28;45519;-72
2022/04/04 09:13:27;;;;;;;;;6.50;4.75;;;;;32.52;24.21;101741.25;5032430;28;45668;-72
2022/04/04 09:16:04;;;;;;;;;3.00;3.00;;;;;33.67;25.14;101741.53;5031495;28;45831;-71
2022/04/04 09:18:35;;;;;;;;;3.50;3.50;;;;;35.47;23.81;101729.00;5033017;28;45360;-71
2022/04/04 09:21:03;;;;;;;;;3.00;3.00;;;;;36.65;20.92;101734.75;5033847;28;45616;-71
2022/04/04 09:23:35;;;;;;;;;4.75;2.75;;;;;36.60;20.99;101726.34;5030353;28;46278;-70
2022/04/04 09:26:04;;;;;;;;;8.25;8.25;;;;;37.31;20.41;101736.41;5033659;28;45665;-72
2022/04/04 09:28:29;;;;;;;;;3.50;3.50;;;;;37.60;20.06;101735.88;5011722;28;45738;-71
2022/04/04 09:31:09;;;;;;;;;6.00;5.50;;;;;35.88;19.79;101732.66;5042420;28;45481;-71
2022/04/04 09:33:39;;;;;;;;;3.75;3.00;;;;;34.61;20.65;101728.53;5033382;28;45522;-71
2022/04/04 09:36:05;;;;;;;;;1.50;1.50;;;;;34.20;18.64;101729.28;5033420;28;45651;-71
2022/04/04 09:38:33;;;;;;;;;5.00;3.00;;;;;33.41;19.08;101717.53;5039672;28;45611;-70
2022/04/04 09:41:19;;;;;;;;;2.00;2.00;;;;;32.96;18.36;101714.91;5040126;28;45409;-72
2022/04/04 09:43:57;;;;;;;;;3.00;3.00;;;;;31.73;18.66;101705.34;5049685;28;45570;-71
2022/04/04 09:46:23;;;;;;;;;3.75;3.25;;;;;30.08;18.87;101704.22;5035399;28;45760;-72
2022/04/04 09:49:13;;;;;;;;;3.25;3.25;;;;;28.50;20.26;101716.69;5035243;28;45239;-71
2022/04/04 09:51:53;;;;;;;;;3.00;3.00;;;;;27.50;21.64;101694.34;5019524;28;45450;-71
2022/04/04 09:54:20;;;;;;;;;5.00;3.00;;;;;27.27;20.88;101690.41;5032537;28;45460;-71
2022/04/04 09:56:53;;;;;;;;;3.00;2.00;;;;;27.24;21.22;101688.00;5029062;28;45818;-72
2022/04/04 09:59:19;;;;;;;;;3.75;2.25;;;;;26.87;21.05;101691.56;5031723;28;45484;-72
2022/04/04 10:01:46;;;;;;;;;2.50;2.50;;;;;26.19;21.25;101689.06;5039052;28;45433;-72
2022/04/04 10:04:15;;;;;;;;;4.00;3.00;;;;;25.68;21.34;101684.78;5032698;28;46176;-71
2022/04/04 10:06:42;;;;;;;;;5.00;3.75;;;;;25.09;21.88;101685.69;5037672;28;45695;-71
2022/04/04 10:09:09;;;;;;;;;3.00;3.00;;;;;24.85;21.75;101682.47;5032144;28;45520;-71
2022/04/04 10:11:38;;;;;;;;;2.50;2.50;;;;;24.58;21.95;101678.53;5029944;28;45479;-71
2022/04/04 10:14:04;;;;;;;;;2.50;2.50;;;;;24.21;22.68;101670.94;5033587;28;45579;-72
2022/04/04 10:16:31;;;;;;;;;3.75;3.00;;;;;24.19;22.36;101693.53;5030684;28;45476;-72
2022/04/04 10:18:57;;;;;;;;;3.00;3.00;;;;;23.90;22.98;101677.22;5034107;28;45429;-72
2022/04/04 10:21:25;;;;;;;;;4.25;3.25;;;;;24.19;22.75;101674.75;5034282;28;45450;-72
2022/04/04 10:23:54;;;;;;;;;4.00;2.00;;;;;24.31;22.91;101667.47;5023827;28;46273;-71
2022/04/04 10:26:25;;;;;;;;;4.25;4.00;;;;;23.93;22.73;101669.75;5034425;28;45389;-72
2022/04/04 10:28:50;;;;;;;;;3.00;3.00;;;;;23.52;22.59;101667.81;5033049;28;45604;-72
2022/04/04 10:31:20;;;;;;;;;44.75;34.75;;;;;23.39;23.83;101654.59;5033574;28;45417;-72
2022/04/04 10:33:48;;;;;;;;;4.25;2.50;;;;;23.43;22.84;101655.16;5031470;28;45507;-72
2022/04/04 10:36:20;;;;;;;;;3.50;3.25;;;;;23.33;23.13;101646.16;5033189;28;45533;-71
2022/04/04 10:38:52;;;;;;;;;3.00;3.00;;;;;23.19;22.58;101644.63;5024562;28;45475;-71
2022/04/04 10:41:19;;;;;;;;;2.75;2.75;;;;;23.26;23.51;101643.16;5029589;28;45677;-70
2022/04/04 10:43:47;;;;;;;;;4.75;3.50;;;;;23.52;24.10;101641.00;5031966;28;46124;-70
2022/04/04 10:46:15;;;;;;;;;2.75;2.75;;;;;23.58;24.00;101632.44;5026090;28;45683;-70
2022/04/04 10:48:49;;;;;;;;;2.25;2.25;;;;;23.43;24.16;101633.69;5030947;28;45336;-70
2022/04/04 10:51:20;;;;;;;;;4.25;4.25;;;;;23.20;24.58;101630.25;5030209;28;45545;-69
2022/04/04 10:54:11;;;;;;;;;2.25;2.25;;;;;22.92;23.37;101616.44;5026818;28;46181;-71
2022/04/04 10:56:41;;;;;;;;;3.00;2.00;;;;;22.42;24.58;101615.06;5017924;28;45349;-71
2022/04/04 10:59:15;;;;;;;;;3.75;2.50;;;;;21.95;23.77;101613.38;5030812;28;45745;-71
2022/04/04 11:01:55;;;;;;;;;2.00;2.00;;;;;21.47;24.01;101614.31;5030810;28;45729;-70
2022/04/04 11:04:29;;;;;;;;;2.00;2.00;;;;;20.98;23.88;101601.88;5033179;28;46195;-71
2022/04/04 11:09:57;;;;;;;;;4.75;2.00;;;;;20.36;25.11;101601.00;5030987;28;45421;-69
2022/04/04 11:12:25;;;;;;;;;4.00;3.00;;;;;20.34;25.41;101598.44;5033800;28;45683;-70
2022/04/04 11:14:55;;;;;;;;;2.50;2.50;;;;;20.22;25.31;101589.50;5033317;28;45946;-71
2022/04/04 11:17:36;;;;;;;;;3.00;3.00;;;;;20.09;25.30;101585.94;5032689;28;45630;-71
2022/04/04 11:20:31;;;;;;;;;3.75;2.25;;;;;19.95;25.63;101581.59;5029110;28;45459;-70
2022/04/04 11:22:58;;;;;;;;;3.50;2.25;;;;;19.88;24.91;101580.28;5033744;28;45641;-70
2022/04/04 11:25:33;;;;;;;;;3.00;3.00;;;;;19.58;25.01;101569.88;5033005;28;46221;-71